sensor_id;sensor_type;location;lat;lon;timestamp;P1;durP1;ratioP1;P2;durP2;ratioP2
60026;SDS011;45891;53.006;6.512;2023-04-25T00:00:00;24.50;;;4.63;;
60026;SDS011;45891;53.006;6.512;2023-04-25T00:02:26;20.65;;;4.78;;
60026;SDS011;45891;53.006;6.512;2023-04-25T00:04:53;22.38;;;5.07;;
60026;SDS011;45891;53.006;6.512;2023-04-25T00:07:19;24.40;;;4.57;;
60026;SDS011;45891;53.006;6.512;2023-04-25T00:09:45;29.08;;;5.18;;
60026;SDS011;45891;53.006;6.512;2023-04-25T00:12:12;23.30;;;4.75;;
60026;SDS011;45891;53.006;6.512;2023-04-25T00:14:38;24.08;;;5.20;;
60026;SDS011;45891;53.006;6.512;2023-04-25T00:17:04;30.70;;;4.93;;
60026;SDS011;45891;53.006;6.512;2023-04-25T00:19:31;20.83;;;4.63;;
60026;SDS011;45891;53.006;6.512;2023-04-25T00:21:58;20.88;;;4.80;;
60026;SDS011;45891;53.006;6.512;2023-04-25T00:24:24;24.33;;;4.65;;
60026;SDS011;45891;53.006;6.512;2023-04-25T00:26:50;21.92;;;4.47;;
60026;SDS011;45891;53.006;6.512;2023-04-25T00:29:16;25.92;;;5.10;;
60026;SDS011;45891;53.006;6.512;2023-04-25T00:31:42;24.40;;;4.78;;
60026;SDS011;45891;53.006;6.512;2023-04-25T00:34:08;20.08;;;4.63;;
60026;SDS011;45891;53.006;6.512;2023-04-25T00:36:34;27.05;;;4.40;;
60026;SDS011;45891;53.006;6.512;2023-04-25T00:39:00;27.40;;;4.70;;
60026;SDS011;45891;53.006;6.512;2023-04-25T00:41:26;18.75;;;4.00;;
60026;SDS011;45891;53.006;6.512;2023-04-25T00:43:53;26.70;;;4.47;;
60026;SDS011;45891;53.006;6.512;2023-04-25T00:46:20;28.42;;;4.45;;
60026;SDS011;45891;53.006;6.512;2023-04-25T00:48:46;26.33;;;4.72;;
60026;SDS011;45891;53.006;6.512;2023-04-25T00:51:13;25.53;;;4.13;;
60026;SDS011;45891;53.006;6.512;2023-04-25T00:56:10;21.58;;;4.50;;
60026;SDS011;45891;53.006;6.512;2023-04-25T00:58:36;24.25;;;4.55;;
60026;SDS011;45891;53.006;6.512;2023-04-25T01:01:03;27.98;;;4.35;;
60026;SDS011;45891;53.006;6.512;2023-04-25T01:03:31;22.77;;;4.25;;
60026;SDS011;45891;53.006;6.512;2023-04-25T01:05:58;19.85;;;3.58;;
60026;SDS011;45891;53.006;6.512;2023-04-25T01:08:24;31.63;;;5.07;;
60026;SDS011;45891;53.006;6.512;2023-04-25T01:10:51;30.23;;;4.60;;
60026;SDS011;45891;53.006;6.512;2023-04-25T01:13:17;27.45;;;4.50;;
60026;SDS011;45891;53.006;6.512;2023-04-25T01:15:43;19.45;;;3.67;;
60026;SDS011;45891;53.006;6.512;2023-04-25T01:18:09;26.98;;;4.28;;
60026;SDS011;45891;53.006;6.512;2023-04-25T01:20:35;28.50;;;5.00;;
60026;SDS011;45891;53.006;6.512;2023-04-25T01:23:04;20.52;;;4.00;;
60026;SDS011;45891;53.006;6.512;2023-04-25T01:25:30;19.92;;;3.45;;
60026;SDS011;45891;53.006;6.512;2023-04-25T01:27:57;23.80;;;3.85;;
60026;SDS011;45891;53.006;6.512;2023-04-25T01:30:25;20.52;;;3.95;;
60026;SDS011;45891;53.006;6.512;2023-04-25T01:32:54;22.42;;;3.90;;
60026;SDS011;45891;53.006;6.512;2023-04-25T01:35:22;21.55;;;3.67;;
60026;SDS011;45891;53.006;6.512;2023-04-25T01:37:49;24.95;;;4.65;;
60026;SDS011;45891;53.006;6.512;2023-04-25T01:40:16;24.30;;;4.03;;
60026;SDS011;45891;53.006;6.512;2023-04-25T01:42:44;30.88;;;4.72;;
60026;SDS011;45891;53.006;6.512;2023-04-25T01:45:11;19.52;;;4.10;;
60026;SDS011;45891;53.006;6.512;2023-04-25T01:47:38;19.50;;;3.70;;
60026;SDS011;45891;53.006;6.512;2023-04-25T01:52:35;26.63;;;4.28;;
60026;SDS011;45891;53.006;6.512;2023-04-25T01:55:01;24.27;;;4.10;;
60026;SDS011;45891;53.006;6.512;2023-04-25T01:57:28;27.10;;;4.13;;
60026;SDS011;45891;53.006;6.512;2023-04-25T01:59:59;20.13;;;3.72;;
60026;SDS011;45891;53.006;6.512;2023-04-25T02:02:26;22.00;;;3.83;;
60026;SDS011;45891;53.006;6.512;2023-04-25T02:04:52;23.45;;;4.15;;
60026;SDS011;45891;53.006;6.512;2023-04-25T02:07:20;24.83;;;4.25;;
60026;SDS011;45891;53.006;6.512;2023-04-25T02:09:46;21.67;;;3.60;;
60026;SDS011;45891;53.006;6.512;2023-04-25T02:12:12;23.08;;;4.00;;
60026;SDS011;45891;53.006;6.512;2023-04-25T02:14:38;23.92;;;4.15;;
60026;SDS011;45891;53.006;6.512;2023-04-25T02:17:05;20.50;;;3.92;;
60026;SDS011;45891;53.006;6.512;2023-04-25T02:19:31;21.30;;;3.95;;
60026;SDS011;45891;53.006;6.512;2023-04-25T02:21:57;21.85;;;3.67;;
60026;SDS011;45891;53.006;6.512;2023-04-25T02:24:23;21.73;;;3.42;;
60026;SDS011;45891;53.006;6.512;2023-04-25T02:26:49;23.52;;;3.88;;
60026;SDS011;45891;53.006;6.512;2023-04-25T02:29:16;25.60;;;4.38;;
60026;SDS011;45891;53.006;6.512;2023-04-25T02:31:42;22.15;;;3.70;;
60026;SDS011;45891;53.006;6.512;2023-04-25T02:34:08;22.35;;;3.72;;
60026;SDS011;45891;53.006;6.512;2023-04-25T02:36:34;25.73;;;4.28;;
60026;SDS011;45891;53.006;6.512;2023-04-25T02:39:01;24.13;;;3.53;;
60026;SDS011;45891;53.006;6.512;2023-04-25T02:41:28;25.23;;;4.38;;
60026;SDS011;45891;53.006;6.512;2023-04-25T02:43:55;18.70;;;3.58;;
60026;SDS011;45891;53.006;6.512;2023-04-25T02:46:21;20.85;;;3.90;;
60026;SDS011;45891;53.006;6.512;2023-04-25T02:48:47;36.08;;;5.78;;
60026;SDS011;45891;53.006;6.512;2023-04-25T02:51:13;17.37;;;3.20;;
60026;SDS011;45891;53.006;6.512;2023-04-25T02:53:39;28.15;;;4.35;;
60026;SDS011;45891;53.006;6.512;2023-04-25T02:56:05;16.95;;;3.25;;
60026;SDS011;45891;53.006;6.512;2023-04-25T02:58:31;24.60;;;3.05;;
60026;SDS011;45891;53.006;6.512;2023-04-25T03:00:57;20.13;;;3.20;;
60026;SDS011;45891;53.006;6.512;2023-04-25T03:03:23;28.60;;;3.70;;
60026;SDS011;45891;53.006;6.512;2023-04-25T03:05:50;23.90;;;3.33;;
60026;SDS011;45891;53.006;6.512;2023-04-25T03:08:17;18.52;;;3.25;;
60026;SDS011;45891;53.006;6.512;2023-04-25T03:10:43;22.45;;;3.80;;
60026;SDS011;45891;53.006;6.512;2023-04-25T03:13:10;20.50;;;2.95;;
60026;SDS011;45891;53.006;6.512;2023-04-25T03:15:37;20.40;;;3.58;;
60026;SDS011;45891;53.006;6.512;2023-04-25T03:18:04;16.25;;;2.83;;
60026;SDS011;45891;53.006;6.512;2023-04-25T03:20:31;19.58;;;3.92;;
60026;SDS011;45891;53.006;6.512;2023-04-25T03:22:57;19.60;;;2.97;;
60026;SDS011;45891;53.006;6.512;2023-04-25T03:25:23;20.48;;;3.65;;
60026;SDS011;45891;53.006;6.512;2023-04-25T03:27:49;21.02;;;3.05;;
60026;SDS011;45891;53.006;6.512;2023-04-25T03:30:15;18.23;;;2.80;;
60026;SDS011;45891;53.006;6.512;2023-04-25T03:32:41;15.38;;;2.10;;
60026;SDS011;45891;53.006;6.512;2023-04-25T03:35:07;15.32;;;2.55;;
60026;SDS011;45891;53.006;6.512;2023-04-25T03:37:34;13.55;;;2.20;;
60026;SDS011;45891;53.006;6.512;2023-04-25T03:40:00;13.55;;;2.45;;
60026;SDS011;45891;53.006;6.512;2023-04-25T03:42:26;13.45;;;2.60;;
60026;SDS011;45891;53.006;6.512;2023-04-25T03:44:52;14.18;;;2.50;;
60026;SDS011;45891;53.006;6.512;2023-04-25T03:47:18;15.55;;;2.55;;
60026;SDS011;45891;53.006;6.512;2023-04-25T03:49:44;9.98;;;1.77;;
60026;SDS011;45891;53.006;6.512;2023-04-25T03:52:10;18.48;;;2.08;;
60026;SDS011;45891;53.006;6.512;2023-04-25T03:54:36;12.48;;;2.08;;
60026;SDS011;45891;53.006;6.512;2023-04-25T03:57:02;14.40;;;2.13;;
60026;SDS011;45891;53.006;6.512;2023-04-25T03:59:28;15.18;;;2.30;;
60026;SDS011;45891;53.006;6.512;2023-04-25T04:01:54;14.57;;;2.05;;
60026;SDS011;45891;53.006;6.512;2023-04-25T04:04:21;14.18;;;2.38;;
60026;SDS011;45891;53.006;6.512;2023-04-25T04:06:47;11.98;;;2.40;;
60026;SDS011;45891;53.006;6.512;2023-04-25T04:09:13;14.45;;;2.20;;
60026;SDS011;45891;53.006;6.512;2023-04-25T04:11:39;14.55;;;2.22;;
60026;SDS011;45891;53.006;6.512;2023-04-25T04:14:06;14.00;;;2.00;;
60026;SDS011;45891;53.006;6.512;2023-04-25T04:16:32;16.15;;;2.60;;
60026;SDS011;45891;53.006;6.512;2023-04-25T04:18:59;16.30;;;2.50;;
60026;SDS011;45891;53.006;6.512;2023-04-25T04:21:25;12.93;;;2.40;;
60026;SDS011;45891;53.006;6.512;2023-04-25T04:23:52;15.32;;;2.20;;
60026;SDS011;45891;53.006;6.512;2023-04-25T04:26:20;13.00;;;2.05;;
60026;SDS011;45891;53.006;6.512;2023-04-25T04:28:49;13.32;;;2.15;;
60026;SDS011;45891;53.006;6.512;2023-04-25T04:31:20;12.05;;;1.85;;
60026;SDS011;45891;53.006;6.512;2023-04-25T04:33:46;11.05;;;2.25;;
60026;SDS011;45891;53.006;6.512;2023-04-25T04:36:13;14.38;;;1.98;;
60026;SDS011;45891;53.006;6.512;2023-04-25T04:38:39;20.83;;;2.75;;
60026;SDS011;45891;53.006;6.512;2023-04-25T04:41:06;11.13;;;2.40;;
60026;SDS011;45891;53.006;6.512;2023-04-25T04:43:32;16.70;;;2.28;;
60026;SDS011;45891;53.006;6.512;2023-04-25T04:46:02;16.95;;;2.20;;
60026;SDS011;45891;53.006;6.512;2023-04-25T04:48:30;12.38;;;2.10;;
60026;SDS011;45891;53.006;6.512;2023-04-25T04:50:59;10.43;;;2.15;;
60026;SDS011;45891;53.006;6.512;2023-04-25T04:53:26;12.73;;;1.80;;
60026;SDS011;45891;53.006;6.512;2023-04-25T04:55:52;13.25;;;2.35;;
60026;SDS011;45891;53.006;6.512;2023-04-25T04:58:19;11.13;;;1.65;;
60026;SDS011;45891;53.006;6.512;2023-04-25T05:00:45;11.68;;;1.80;;
60026;SDS011;45891;53.006;6.512;2023-04-25T05:03:11;16.40;;;2.50;;
60026;SDS011;45891;53.006;6.512;2023-04-25T05:05:38;11.68;;;2.20;;
60026;SDS011;45891;53.006;6.512;2023-04-25T05:08:05;11.23;;;2.05;;
60026;SDS011;45891;53.006;6.512;2023-04-25T05:10:31;12.65;;;2.72;;
60026;SDS011;45891;53.006;6.512;2023-04-25T05:12:58;13.88;;;2.10;;
60026;SDS011;45891;53.006;6.512;2023-04-25T05:15:24;12.57;;;2.28;;
60026;SDS011;45891;53.006;6.512;2023-04-25T05:17:50;13.98;;;2.65;;
60026;SDS011;45891;53.006;6.512;2023-04-25T05:20:16;10.57;;;1.90;;
60026;SDS011;45891;53.006;6.512;2023-04-25T05:22:44;13.95;;;2.15;;
60026;SDS011;45891;53.006;6.512;2023-04-25T05:25:10;21.35;;;2.67;;
60026;SDS011;45891;53.006;6.512;2023-04-25T05:27:36;15.10;;;2.20;;
60026;SDS011;45891;53.006;6.512;2023-04-25T05:30:02;14.77;;;2.10;;
60026;SDS011;45891;53.006;6.512;2023-04-25T05:32:30;13.35;;;2.28;;
60026;SDS011;45891;53.006;6.512;2023-04-25T05:34:56;14.27;;;2.30;;
60026;SDS011;45891;53.006;6.512;2023-04-25T05:37:22;21.10;;;2.60;;
60026;SDS011;45891;53.006;6.512;2023-04-25T05:39:48;17.95;;;2.35;;
60026;SDS011;45891;53.006;6.512;2023-04-25T05:42:15;16.85;;;2.72;;
60026;SDS011;45891;53.006;6.512;2023-04-25T05:44:41;13.25;;;2.45;;
60026;SDS011;45891;53.006;6.512;2023-04-25T05:47:07;15.15;;;2.63;;
60026;SDS011;45891;53.006;6.512;2023-04-25T05:49:33;21.42;;;2.88;;
60026;SDS011;45891;53.006;6.512;2023-04-25T05:52:00;15.63;;;2.65;;
60026;SDS011;45891;53.006;6.512;2023-04-25T05:54:26;15.52;;;2.47;;
60026;SDS011;45891;53.006;6.512;2023-04-25T05:56:52;17.13;;;3.13;;
60026;SDS011;45891;53.006;6.512;2023-04-25T05:59:18;15.63;;;2.45;;
60026;SDS011;45891;53.006;6.512;2023-04-25T06:01:44;13.60;;;2.17;;
60026;SDS011;45891;53.006;6.512;2023-04-25T06:04:12;14.40;;;2.22;;
60026;SDS011;45891;53.006;6.512;2023-04-25T06:06:38;18.00;;;2.67;;
60026;SDS011;45891;53.006;6.512;2023-04-25T06:09:04;18.50;;;2.88;;
60026;SDS011;45891;53.006;6.512;2023-04-25T06:11:30;16.20;;;2.60;;
60026;SDS011;45891;53.006;6.512;2023-04-25T06:13:56;17.75;;;2.63;;
60026;SDS011;45891;53.006;6.512;2023-04-25T06:16:22;16.05;;;2.40;;
60026;SDS011;45891;53.006;6.512;2023-04-25T06:18:51;15.98;;;2.58;;
60026;SDS011;45891;53.006;6.512;2023-04-25T06:21:17;17.85;;;2.42;;
60026;SDS011;45891;53.006;6.512;2023-04-25T06:23:43;13.52;;;2.70;;
60026;SDS011;45891;53.006;6.512;2023-04-25T06:26:09;18.25;;;2.90;;
60026;SDS011;45891;53.006;6.512;2023-04-25T06:28:35;16.00;;;2.53;;
60026;SDS011;45891;53.006;6.512;2023-04-25T06:31:01;15.23;;;2.17;;
60026;SDS011;45891;53.006;6.512;2023-04-25T06:33:27;14.60;;;2.30;;
60026;SDS011;45891;53.006;6.512;2023-04-25T06:35:54;12.15;;;2.08;;
60026;SDS011;45891;53.006;6.512;2023-04-25T06:38:20;16.73;;;1.95;;
60026;SDS011;45891;53.006;6.512;2023-04-25T06:40:46;13.18;;;1.83;;
60026;SDS011;45891;53.006;6.512;2023-04-25T06:43:12;14.43;;;2.03;;
60026;SDS011;45891;53.006;6.512;2023-04-25T06:45:39;15.30;;;2.00;;
60026;SDS011;45891;53.006;6.512;2023-04-25T06:48:05;11.77;;;2.00;;
60026;SDS011;45891;53.006;6.512;2023-04-25T06:50:31;14.63;;;1.90;;
60026;SDS011;45891;53.006;6.512;2023-04-25T06:52:57;14.60;;;2.10;;
60026;SDS011;45891;53.006;6.512;2023-04-25T06:55:23;13.55;;;2.13;;
60026;SDS011;45891;53.006;6.512;2023-04-25T06:57:49;14.65;;;2.20;;
60026;SDS011;45891;53.006;6.512;2023-04-25T07:00:15;15.65;;;1.90;;
60026;SDS011;45891;53.006;6.512;2023-04-25T07:02:42;12.38;;;1.92;;
60026;SDS011;45891;53.006;6.512;2023-04-25T07:05:08;13.20;;;1.63;;
60026;SDS011;45891;53.006;6.512;2023-04-25T07:07:35;13.85;;;1.70;;
60026;SDS011;45891;53.006;6.512;2023-04-25T07:10:01;10.07;;;1.60;;
60026;SDS011;45891;53.006;6.512;2023-04-25T07:12:27;12.65;;;2.13;;
60026;SDS011;45891;53.006;6.512;2023-04-25T07:14:53;10.38;;;1.55;;
60026;SDS011;45891;53.006;6.512;2023-04-25T07:17:19;11.32;;;1.77;;
60026;SDS011;45891;53.006;6.512;2023-04-25T07:19:45;13.30;;;2.17;;
60026;SDS011;45891;53.006;6.512;2023-04-25T07:22:11;10.77;;;1.52;;
60026;SDS011;45891;53.006;6.512;2023-04-25T07:24:37;14.43;;;2.05;;
60026;SDS011;45891;53.006;6.512;2023-04-25T07:27:04;10.50;;;1.50;;
60026;SDS011;45891;53.006;6.512;2023-04-25T07:29:30;9.48;;;1.65;;
60026;SDS011;45891;53.006;6.512;2023-04-25T07:31:57;14.80;;;1.98;;
60026;SDS011;45891;53.006;6.512;2023-04-25T07:34:23;14.63;;;2.03;;
60026;SDS011;45891;53.006;6.512;2023-04-25T07:36:49;11.52;;;1.92;;
60026;SDS011;45891;53.006;6.512;2023-04-25T07:39:15;13.40;;;1.60;;
60026;SDS011;45891;53.006;6.512;2023-04-25T07:41:41;11.25;;;1.65;;
60026;SDS011;45891;53.006;6.512;2023-04-25T07:44:08;14.20;;;2.03;;
60026;SDS011;45891;53.006;6.512;2023-04-25T07:46:34;14.35;;;2.10;;
60026;SDS011;45891;53.006;6.512;2023-04-25T07:49:00;15.18;;;1.80;;
60026;SDS011;45891;53.006;6.512;2023-04-25T07:51:26;12.82;;;1.88;;
60026;SDS011;45891;53.006;6.512;2023-04-25T07:53:53;9.70;;;1.63;;
60026;SDS011;45891;53.006;6.512;2023-04-25T07:56:19;10.20;;;2.10;;
60026;SDS011;45891;53.006;6.512;2023-04-25T07:58:45;10.98;;;1.90;;
60026;SDS011;45891;53.006;6.512;2023-04-25T08:01:11;10.25;;;1.85;;
60026;SDS011;45891;53.006;6.512;2023-04-25T08:03:37;13.15;;;2.03;;
60026;SDS011;45891;53.006;6.512;2023-04-25T08:06:03;13.15;;;1.80;;
60026;SDS011;45891;53.006;6.512;2023-04-25T08:08:29;15.48;;;2.17;;
60026;SDS011;45891;53.006;6.512;2023-04-25T08:10:55;12.98;;;1.88;;
60026;SDS011;45891;53.006;6.512;2023-04-25T08:13:21;12.10;;;1.80;;
60026;SDS011;45891;53.006;6.512;2023-04-25T08:15:48;10.45;;;1.73;;
60026;SDS011;45891;53.006;6.512;2023-04-25T08:18:14;14.45;;;1.52;;
60026;SDS011;45891;53.006;6.512;2023-04-25T08:20:40;9.88;;;1.48;;
60026;SDS011;45891;53.006;6.512;2023-04-25T08:23:06;8.50;;;1.30;;
60026;SDS011;45891;53.006;6.512;2023-04-25T08:25:32;7.78;;;1.50;;
60026;SDS011;45891;53.006;6.512;2023-04-25T08:27:59;11.43;;;1.75;;
60026;SDS011;45891;53.006;6.512;2023-04-25T08:30:28;13.60;;;2.25;;
60026;SDS011;45891;53.006;6.512;2023-04-25T08:32:54;7.00;;;1.10;;
60026;SDS011;45891;53.006;6.512;2023-04-25T08:35:21;11.95;;;1.65;;
60026;SDS011;45891;53.006;6.512;2023-04-25T08:37:47;10.15;;;1.75;;
60026;SDS011;45891;53.006;6.512;2023-04-25T08:40:14;13.15;;;1.92;;
60026;SDS011;45891;53.006;6.512;2023-04-25T08:42:41;13.23;;;1.73;;
60026;SDS011;45891;53.006;6.512;2023-04-25T08:45:08;12.68;;;1.88;;
60026;SDS011;45891;53.006;6.512;2023-04-25T08:47:35;8.80;;;1.52;;
60026;SDS011;45891;53.006;6.512;2023-04-25T08:50:05;6.82;;;0.95;;
60026;SDS011;45891;53.006;6.512;2023-04-25T08:52:39;7.05;;;1.13;;
60026;SDS011;45891;53.006;6.512;2023-04-25T08:55:10;8.60;;;1.10;;
60026;SDS011;45891;53.006;6.512;2023-04-25T08:57:38;7.03;;;1.35;;
60026;SDS011;45891;53.006;6.512;2023-04-25T09:00:06;11.38;;;1.50;;
60026;SDS011;45891;53.006;6.512;2023-04-25T09:02:33;8.20;;;1.10;;
60026;SDS011;45891;53.006;6.512;2023-04-25T09:05:00;8.82;;;1.30;;
60026;SDS011;45891;53.006;6.512;2023-04-25T09:07:28;8.95;;;1.23;;
60026;SDS011;45891;53.006;6.512;2023-04-25T09:09:54;7.45;;;1.27;;
60026;SDS011;45891;53.006;6.512;2023-04-25T09:12:20;6.30;;;1.10;;
60026;SDS011;45891;53.006;6.512;2023-04-25T09:17:32;10.73;;;1.40;;
60026;SDS011;45891;53.006;6.512;2023-04-25T09:20:17;7.50;;;1.08;;
60026;SDS011;45891;53.006;6.512;2023-04-25T09:22:43;8.02;;;1.00;;
60026;SDS011;45891;53.006;6.512;2023-04-25T09:25:11;8.77;;;1.30;;
60026;SDS011;45891;53.006;6.512;2023-04-25T09:27:53;11.10;;;1.33;;
60026;SDS011;45891;53.006;6.512;2023-04-25T09:30:28;8.73;;;1.40;;
60026;SDS011;45891;53.006;6.512;2023-04-25T09:33:08;8.40;;;1.30;;
60026;SDS011;45891;53.006;6.512;2023-04-25T09:35:42;8.65;;;1.48;;
60026;SDS011;45891;53.006;6.512;2023-04-25T09:38:11;12.55;;;1.50;;
60026;SDS011;45891;53.006;6.512;2023-04-25T09:40:41;9.13;;;1.30;;
60026;SDS011;45891;53.006;6.512;2023-04-25T09:43:09;12.48;;;1.83;;
60026;SDS011;45891;53.006;6.512;2023-04-25T09:45:49;10.27;;;1.55;;
60026;SDS011;45891;53.006;6.512;2023-04-25T09:48:17;10.40;;;1.48;;
60026;SDS011;45891;53.006;6.512;2023-04-25T09:50:47;11.35;;;1.77;;
60026;SDS011;45891;53.006;6.512;2023-04-25T09:53:30;9.90;;;1.73;;
60026;SDS011;45891;53.006;6.512;2023-04-25T09:55:58;10.98;;;1.63;;
60026;SDS011;45891;53.006;6.512;2023-04-25T09:58:25;9.80;;;1.70;;
60026;SDS011;45891;53.006;6.512;2023-04-25T10:01:05;9.73;;;1.80;;
60026;SDS011;45891;53.006;6.512;2023-04-25T10:03:34;12.75;;;1.80;;
60026;SDS011;45891;53.006;6.512;2023-04-25T10:06:03;14.10;;;2.10;;
60026;SDS011;45891;53.006;6.512;2023-04-25T10:08:35;14.73;;;2.13;;
60026;SDS011;45891;53.006;6.512;2023-04-25T10:11:06;13.38;;;2.00;;
60026;SDS011;45891;53.006;6.512;2023-04-25T10:13:34;12.40;;;2.08;;
60026;SDS011;45891;53.006;6.512;2023-04-25T10:16:01;11.48;;;2.22;;
60026;SDS011;45891;53.006;6.512;2023-04-25T10:18:29;14.70;;;2.03;;
60026;SDS011;45891;53.006;6.512;2023-04-25T10:21:00;14.77;;;2.35;;
60026;SDS011;45891;53.006;6.512;2023-04-25T10:23:29;13.30;;;2.20;;
60026;SDS011;45891;53.006;6.512;2023-04-25T10:25:56;13.45;;;2.28;;
60026;SDS011;45891;53.006;6.512;2023-04-25T10:28:23;15.02;;;2.25;;
60026;SDS011;45891;53.006;6.512;2023-04-25T10:31:00;9.55;;;1.67;;
60026;SDS011;45891;53.006;6.512;2023-04-25T10:33:36;13.75;;;2.00;;
60026;SDS011;45891;53.006;6.512;2023-04-25T10:36:14;11.63;;;1.90;;
60026;SDS011;45891;53.006;6.512;2023-04-25T10:38:43;11.30;;;1.65;;
60026;SDS011;45891;53.006;6.512;2023-04-25T10:41:10;9.95;;;1.70;;
60026;SDS011;45891;53.006;6.512;2023-04-25T10:43:39;12.50;;;1.70;;
60026;SDS011;45891;53.006;6.512;2023-04-25T10:46:18;7.25;;;1.40;;
60026;SDS011;45891;53.006;6.512;2023-04-25T10:48:52;9.82;;;1.35;;
60026;SDS011;45891;53.006;6.512;2023-04-25T10:53:59;11.30;;;1.63;;
60026;SDS011;45891;53.006;6.512;2023-04-25T10:56:31;11.02;;;1.50;;
60026;SDS011;45891;53.006;6.512;2023-04-25T10:59:13;9.02;;;1.20;;
60026;SDS011;45891;53.006;6.512;2023-04-25T11:01:45;10.27;;;1.52;;
60026;SDS011;45891;53.006;6.512;2023-04-25T11:04:22;10.23;;;1.60;;
60026;SDS011;45891;53.006;6.512;2023-04-25T11:09:34;11.85;;;1.75;;
60026;SDS011;45891;53.006;6.512;2023-04-25T11:12:03;10.48;;;1.30;;
60026;SDS011;45891;53.006;6.512;2023-04-25T11:14:30;7.50;;;1.50;;
60026;SDS011;45891;53.006;6.512;2023-04-25T11:16:57;7.28;;;1.00;;
60026;SDS011;45891;53.006;6.512;2023-04-25T11:19:23;7.35;;;1.35;;
60026;SDS011;45891;53.006;6.512;2023-04-25T11:21:56;10.23;;;1.35;;
60026;SDS011;45891;53.006;6.512;2023-04-25T11:24:33;6.72;;;1.02;;
60026;SDS011;45891;53.006;6.512;2023-04-25T11:27:03;13.00;;;2.13;;
60026;SDS011;45891;53.006;6.512;2023-04-25T11:29:31;9.80;;;1.33;;
60026;SDS011;45891;53.006;6.512;2023-04-25T11:31:59;11.55;;;2.00;;
60026;SDS011;45891;53.006;6.512;2023-04-25T11:34:27;11.63;;;1.85;;
60026;SDS011;45891;53.006;6.512;2023-04-25T11:36:56;15.02;;;2.17;;
60026;SDS011;45891;53.006;6.512;2023-04-25T11:39:26;11.23;;;1.88;;
60026;SDS011;45891;53.006;6.512;2023-04-25T11:41:54;11.95;;;1.88;;
60026;SDS011;45891;53.006;6.512;2023-04-25T11:44:20;9.82;;;1.50;;
60026;SDS011;45891;53.006;6.512;2023-04-25T11:46:47;13.63;;;2.05;;
60026;SDS011;45891;53.006;6.512;2023-04-25T11:49:14;14.57;;;2.10;;
60026;SDS011;45891;53.006;6.512;2023-04-25T11:51:40;12.93;;;1.77;;
60026;SDS011;45891;53.006;6.512;2023-04-25T11:54:10;13.73;;;2.00;;
60026;SDS011;45891;53.006;6.512;2023-04-25T11:56:37;12.55;;;1.60;;
60026;SDS011;45891;53.006;6.512;2023-04-25T11:59:06;11.90;;;1.55;;
60026;SDS011;45891;53.006;6.512;2023-04-25T12:01:33;8.82;;;1.50;;
60026;SDS011;45891;53.006;6.512;2023-04-25T12:06:58;10.38;;;1.63;;
60026;SDS011;45891;53.006;6.512;2023-04-25T12:09:30;10.95;;;1.92;;
60026;SDS011;45891;53.006;6.512;2023-04-25T12:14:25;10.25;;;1.58;;
60026;SDS011;45891;53.006;6.512;2023-04-25T12:16:52;11.95;;;1.58;;
60026;SDS011;45891;53.006;6.512;2023-04-25T12:19:22;12.95;;;1.75;;
60026;SDS011;45891;53.006;6.512;2023-04-25T12:21:49;9.93;;;1.50;;
60026;SDS011;45891;53.006;6.512;2023-04-25T12:29:23;7.95;;;1.50;;
60026;SDS011;45891;53.006;6.512;2023-04-25T12:31:50;9.65;;;1.35;;
60026;SDS011;45891;53.006;6.512;2023-04-25T12:34:21;9.63;;;1.50;;
60026;SDS011;45891;53.006;6.512;2023-04-25T12:36:48;10.00;;;1.38;;
60026;SDS011;45891;53.006;6.512;2023-04-25T12:39:18;10.75;;;1.70;;
60026;SDS011;45891;53.006;6.512;2023-04-25T12:41:49;8.70;;;1.50;;
60026;SDS011;45891;53.006;6.512;2023-04-25T12:44:16;10.48;;;1.60;;
60026;SDS011;45891;53.006;6.512;2023-04-25T12:46:42;11.52;;;1.83;;
60026;SDS011;45891;53.006;6.512;2023-04-25T12:49:08;9.93;;;1.40;;
60026;SDS011;45891;53.006;6.512;2023-04-25T12:51:35;11.13;;;1.92;;
60026;SDS011;45891;53.006;6.512;2023-04-25T12:54:02;9.93;;;1.40;;
60026;SDS011;45891;53.006;6.512;2023-04-25T12:56:30;14.32;;;1.92;;
60026;SDS011;45891;53.006;6.512;2023-04-25T12:58:57;9.55;;;1.48;;
60026;SDS011;45891;53.006;6.512;2023-04-25T13:01:23;9.13;;;1.67;;
60026;SDS011;45891;53.006;6.512;2023-04-25T13:03:52;7.72;;;1.30;;
60026;SDS011;45891;53.006;6.512;2023-04-25T13:06:18;10.65;;;1.70;;
60026;SDS011;45891;53.006;6.512;2023-04-25T13:08:45;10.00;;;1.48;;
60026;SDS011;45891;53.006;6.512;2023-04-25T13:11:12;11.35;;;1.80;;
60026;SDS011;45891;53.006;6.512;2023-04-25T13:13:40;8.90;;;1.45;;
60026;SDS011;45891;53.006;6.512;2023-04-25T13:16:06;13.00;;;1.52;;
60026;SDS011;45891;53.006;6.512;2023-04-25T13:18:33;10.93;;;1.55;;
60026;SDS011;45891;53.006;6.512;2023-04-25T13:21:00;13.32;;;1.80;;
60026;SDS011;45891;53.006;6.512;2023-04-25T13:23:27;12.55;;;1.75;;
60026;SDS011;45891;53.006;6.512;2023-04-25T13:25:54;10.82;;;1.50;;
60026;SDS011;45891;53.006;6.512;2023-04-25T13:28:26;9.68;;;1.85;;
60026;SDS011;45891;53.006;6.512;2023-04-25T13:30:53;11.70;;;2.10;;
60026;SDS011;45891;53.006;6.512;2023-04-25T13:33:19;13.02;;;2.00;;
60026;SDS011;45891;53.006;6.512;2023-04-25T13:35:46;10.77;;;1.65;;
60026;SDS011;45891;53.006;6.512;2023-04-25T13:38:23;8.80;;;1.30;;
60026;SDS011;45891;53.006;6.512;2023-04-25T13:40:50;10.65;;;1.60;;
60026;SDS011;45891;53.006;6.512;2023-04-25T13:43:18;13.40;;;1.95;;
60026;SDS011;45891;53.006;6.512;2023-04-25T13:45:48;8.15;;;1.35;;
60026;SDS011;45891;53.006;6.512;2023-04-25T13:48:15;8.57;;;1.52;;
60026;SDS011;45891;53.006;6.512;2023-04-25T13:50:41;8.80;;;1.45;;
60026;SDS011;45891;53.006;6.512;2023-04-25T13:53:07;11.25;;;1.55;;
60026;SDS011;45891;53.006;6.512;2023-04-25T13:55:34;14.25;;;2.33;;
60026;SDS011;45891;53.006;6.512;2023-04-25T13:58:04;10.73;;;1.67;;
60026;SDS011;45891;53.006;6.512;2023-04-25T14:00:36;11.45;;;1.90;;
60026;SDS011;45891;53.006;6.512;2023-04-25T14:05:32;9.93;;;1.85;;
60026;SDS011;45891;53.006;6.512;2023-04-25T14:08:04;12.80;;;1.88;;
60026;SDS011;45891;53.006;6.512;2023-04-25T14:10:33;10.00;;;1.85;;
60026;SDS011;45891;53.006;6.512;2023-04-25T14:13:00;9.00;;;1.65;;
60026;SDS011;45891;53.006;6.512;2023-04-25T14:15:26;13.85;;;1.90;;
60026;SDS011;45891;53.006;6.512;2023-04-25T14:17:52;10.45;;;1.65;;
60026;SDS011;45891;53.006;6.512;2023-04-25T14:20:19;12.98;;;2.00;;
60026;SDS011;45891;53.006;6.512;2023-04-25T14:22:46;9.40;;;1.65;;
60026;SDS011;45891;53.006;6.512;2023-04-25T14:25:13;10.88;;;1.40;;
60026;SDS011;45891;53.006;6.512;2023-04-25T14:27:39;8.60;;;1.50;;
60026;SDS011;45891;53.006;6.512;2023-04-25T14:30:05;10.90;;;1.70;;
60026;SDS011;45891;53.006;6.512;2023-04-25T14:32:34;11.27;;;1.73;;
60026;SDS011;45891;53.006;6.512;2023-04-25T14:35:00;12.90;;;1.88;;
60026;SDS011;45891;53.006;6.512;2023-04-25T14:37:26;13.43;;;1.70;;
60026;SDS011;45891;53.006;6.512;2023-04-25T14:39:52;10.82;;;1.38;;
60026;SDS011;45891;53.006;6.512;2023-04-25T14:42:18;12.02;;;1.92;;
60026;SDS011;45891;53.006;6.512;2023-04-25T14:44:45;13.85;;;2.00;;
60026;SDS011;45891;53.006;6.512;2023-04-25T14:47:11;11.93;;;2.30;;
60026;SDS011;45891;53.006;6.512;2023-04-25T14:49:37;11.60;;;2.00;;
60026;SDS011;45891;53.006;6.512;2023-04-25T14:52:03;15.68;;;2.15;;
60026;SDS011;45891;53.006;6.512;2023-04-25T14:54:29;13.23;;;1.70;;
60026;SDS011;45891;53.006;6.512;2023-04-25T14:56:55;9.48;;;1.70;;
60026;SDS011;45891;53.006;6.512;2023-04-25T14:59:22;13.95;;;1.40;;
60026;SDS011;45891;53.006;6.512;2023-04-25T15:01:48;9.20;;;1.27;;